createdAt,value
2023-04-17T16:01:21.158Z,5.60
2023-04-17T16:06:27.667Z,5.53
2023-04-17T16:11:33.247Z,5.63
2023-04-17T16:16:41.363Z,5.63
2023-04-17T16:21:46.609Z,5.73
2023-04-17T16:26:57.468Z,5.30
2023-04-17T16:32:05.668Z,6.10
2023-04-17T16:37:11.184Z,5.33
2023-04-17T16:42:16.459Z,5.80
2023-04-17T16:47:24.578Z,5.73
2023-04-17T16:52:30.026Z,5.97
2023-04-17T16:57:38.328Z,5.67
2023-04-17T17:02:46.503Z,6.23
2023-04-17T17:07:51.950Z,5.93
2023-04-17T17:12:57.123Z,6.70
2023-04-17T17:18:05.079Z,6.53
2023-04-17T17:23:10.626Z,6.60
2023-04-17T17:28:15.987Z,6.70
2023-04-17T17:33:24.070Z,7.17
2023-04-17T17:38:32.832Z,6.53
2023-04-17T17:43:38.107Z,6.37
2023-04-17T17:48:46.263Z,6.20
2023-04-17T17:53:51.682Z,5.90
2023-04-17T17:58:56.988Z,5.73
2023-04-17T18:04:05.160Z,6.73
2023-04-17T18:09:10.647Z,6.80
2023-04-17T18:14:16.042Z,6.17
2023-04-17T18:19:24.124Z,6.63
2023-04-17T18:24:29.376Z,6.20
2023-04-17T18:29:34.933Z,6.17
2023-04-17T18:34:44.052Z,5.93
2023-04-17T18:39:49.409Z,6.27
2023-04-17T18:44:54.987Z,6.07
2023-04-17T18:50:03.979Z,6.53
2023-04-17T18:55:10.631Z,6.40
2023-04-17T19:00:16.930Z,6.27
2023-04-17T19:05:26.142Z,6.73
2023-04-17T19:10:31.487Z,6.93
2023-04-17T19:15:36.837Z,6.50
2023-04-17T19:20:44.844Z,6.57
2023-04-17T19:25:55.339Z,6.37
2023-04-17T19:31:01.103Z,6.70
2023-04-17T19:36:09.158Z,6.33
2023-04-17T19:41:17.669Z,6.37
2023-04-17T19:46:23.755Z,6.53
2023-04-17T19:51:31.716Z,6.97
2023-04-17T19:56:37.184Z,7.17
2023-04-17T20:01:43.753Z,7.37
2023-04-17T20:06:52.018Z,7.27
2023-04-17T20:11:57.461Z,6.80
2023-04-17T20:17:02.859Z,7.27
2023-04-17T20:22:11.556Z,6.60
2023-04-17T20:27:17.005Z,6.80
2023-04-17T20:32:23.390Z,7.53
2023-04-17T20:37:31.640Z,8.10
2023-04-17T20:42:36.957Z,7.90
2023-04-17T20:47:55.321Z,8.63
2023-04-17T20:53:04.811Z,8.17
2023-04-17T20:58:10.159Z,8.00
2023-04-17T21:03:15.608Z,7.73
2023-04-17T21:08:23.792Z,8.30
2023-04-17T21:13:29.229Z,8.37
2023-04-17T21:18:34.505Z,8.23
2023-04-17T21:23:42.389Z,7.93
2023-04-17T21:28:47.764Z,7.90
2023-04-17T21:33:53.468Z,8.07
2023-04-17T21:39:01.236Z,7.50
2023-04-17T21:44:06.536Z,7.90
2023-04-17T21:49:11.945Z,7.93
2023-04-17T21:54:19.762Z,8.63
2023-04-17T21:59:25.142Z,8.27
2023-04-17T22:04:30.466Z,8.37
2023-04-17T22:09:38.312Z,8.93
2023-04-17T22:14:43.608Z,8.53
2023-04-17T22:19:48.862Z,9.07
2023-04-17T22:24:56.574Z,9.00
2023-04-17T22:30:01.974Z,8.77
2023-04-17T22:35:08.240Z,8.97
2023-04-17T22:40:16.983Z,9.30
